createdAt,value
2022-08-18T00:09:38.256Z,18.30
2022-08-18T00:20:00.868Z,16.70
2022-08-18T00:30:07.815Z,17.70
2022-08-18T00:40:37.836Z,17.80
2022-08-18T00:51:09.687Z,18.20
2022-08-18T01:01:59.608Z,17.70
2022-08-18T01:13:20.692Z,17.70
2022-08-18T01:23:32.104Z,18.20
2022-08-18T01:33:59.321Z,19.70
2022-08-18T01:44:04.969Z,17.60
2022-08-18T01:54:56.396Z,18.10
2022-08-18T02:05:41.531Z,18.00
2022-08-18T02:15:47.126Z,17.80
2022-08-18T02:26:18.095Z,18.40
2022-08-18T02:36:44.656Z,18.10
2022-08-18T02:47:00.610Z,18.30
2022-08-18T02:57:54.372Z,18.60
2022-08-18T03:08:03.528Z,18.70
2022-08-18T03:18:35.307Z,18.70
2022-08-18T03:28:49.351Z,18.30
2022-08-18T03:38:54.839Z,18.40
2022-08-18T03:59:30.485Z,18.80
2022-08-18T04:09:47.371Z,20.50
2022-08-18T04:21:07.593Z,19.10
2022-08-18T04:31:38.331Z,19.70
2022-08-18T04:41:51.529Z,18.70
2022-08-18T04:53:04.550Z,20.60
2022-08-18T05:03:17.033Z,20.70
2022-08-18T05:13:20.139Z,21.60
2022-08-18T05:23:46.107Z,22.40
2022-08-18T05:33:51.869Z,22.40
2022-08-18T05:43:59.512Z,21.70
2022-08-18T06:05:26.371Z,21.50
2022-08-18T06:16:37.580Z,19.80
2022-08-18T06:34:12.490Z,21.30
2022-08-18T06:39:27.957Z,22.10
2022-08-18T07:00:50.842Z,16.50
2022-08-18T07:11:17.266Z,16.30
2022-08-18T07:21:49.201Z,14.60
2022-08-18T07:31:57.181Z,12.40
2022-08-18T07:53:36.891Z,10.40
2022-08-18T08:04:05.480Z,10.40
2022-08-18T08:14:50.716Z,10.20
2022-08-18T08:25:42.292Z,10.00
2022-08-18T08:35:48.930Z,9.40
2022-08-18T08:58:01.062Z,8.80
2022-08-18T09:08:28.158Z,8.00
2022-08-18T09:19:05.287Z,8.30
2022-08-18T09:30:12.128Z,8.40
2022-08-18T09:41:10.064Z,8.50
2022-08-18T10:02:32.516Z,8.00
2022-08-18T10:14:18.254Z,7.80
2022-08-18T10:25:09.171Z,7.30
2022-08-18T10:47:12.126Z,7.50
2022-08-18T11:09:28.891Z,5.40
2022-08-18T11:20:01.248Z,6.30
2022-08-18T11:30:31.066Z,6.20
2022-08-18T11:41:19.200Z,6.00
2022-08-18T11:52:15.312Z,7.00
2022-08-18T12:03:15.122Z,6.70
2022-08-18T12:13:47.198Z,6.80
2022-08-18T12:23:55.423Z,7.00
2022-08-18T12:34:05.240Z,6.80
2022-08-18T12:44:19.190Z,7.60
2022-08-18T13:05:13.710Z,7.30
2022-08-18T13:15:16.226Z,7.20
2022-08-18T13:27:22.985Z,7.30
2022-08-18T13:36:22.502Z,7.10
2022-08-18T13:46:57.406Z,7.40
2022-08-18T14:08:39.266Z,7.30
2022-08-18T14:42:02.920Z,7.60
2022-08-18T14:52:31.914Z,8.30
2022-08-18T15:02:45.383Z,8.00
2022-08-18T15:12:48.741Z,8.50
2022-08-18T15:23:13.263Z,8.10
2022-08-18T15:33:42.816Z,8.50
2022-08-18T16:17:18.183Z,7.80
2022-08-18T16:39:44.087Z,7.80
2022-08-18T17:53:49.094Z,8.60
2022-08-18T18:57:40.701Z,10.50
2022-08-18T19:50:20.991Z,11.40
2022-08-18T20:12:19.441Z,12.60
2022-08-18T20:23:11.586Z,12.50
2022-08-18T20:33:26.063Z,12.10
2022-08-18T20:44:10.522Z,12.10
2022-08-18T20:54:29.888Z,12.80
2022-08-18T21:36:11.079Z,12.50
2022-08-18T21:56:41.856Z,11.90
2022-08-18T22:29:45.689Z,11.70
2022-08-18T22:50:20.713Z,11.40
2022-08-18T23:21:05.267Z,11.40
2022-08-18T23:31:07.482Z,11.50
2022-08-18T23:52:15.172Z,12.20
